Portada
METAR-TAF:

METAR-TAF

Aeroports :

Al-Kuwait, Kuwait

latitud: 29-13N, longitud: 047-59E, altitud: 55 m

Observació

L'informe es va fer fa 20 minuts, a les 00:00 UTC
Vent 4 kt del Sud
Temperatura 23°C
Humitat 89%
Pressió 1013 hPa
Visibilitat: 4500 m
Cel clar
boirina

METAR: OKBK 200000Z 19004KT 4500 BR SKC 23/21 Q1013 NOSIG

Hora: 03:20 (00:20 UTC)

Pronòstic

L'informe es va fer fa 1 hora i 35 minuts, a les 22:45 UTC
Pronòstic vàlid del 20 a les 00 UTC al 21 a les 06 UTC
Vent 8 kt del Sud/Sud-Oest
Visibilitat: 4000 m
Cel clar
boirina
Temporalment
l' 20 a les 00 UTC al 20 a les 06 UTC
Vent 3 kt amb direcció variable
Visibilitat: 0700 m
boira
Evolucionant progressivament
l' 20 a les 06 UTC al 20 a les 08 UTC
Vent 12 kt del Sud-Est
Visibilitat: 6000 m

TAF: OKBK 192245Z 2000/2106 20008KT 4000 BR SKC TEMPO 2000/2006 VRB03KT 0700 FG BECMG 2006/2008 14012KT 6000 NSC

Observacions i pronòstics meteorològics de més de 4000 aeroports (METAR i TAF).

Les estacions disponibles són els punts grocs i vermells al mapa.

Posi el ratolí al punt desitjat per veure el nom de l'estació.

Feu clic per veure les observacions i els pronòstics meteorològics.

Per canviar el mapa: feu clic els botons verds amb una creu de color negre per apropar; al botó verd amb un guió per allunyar la imatge; o en les fletxes verdes per a mapes adjacents.


METAR-TAF: